Allison, Texas
Current Conditions -  °F | °C
As of 6:15 AM on Thursday 29 Jan 2015 (Local Time) from KHHF Reporting Station
Clear Clear  
Wind Chill: 40°   Ceiling: Unl
Heat Index: 46°   Visibility: 10mi
Dew Point: 36°   Wind: 10mph
Humidity: 68%   Direction: 350°N
Pressure: 30.33"   Gusts: NA
Location:  35.61°N, 100.1°W
Report Text: KHHF 291215Z AUTO 35009KT 10SM CLR 08/02 A3033 RMK AO2 T00750020
Loading
Personal Weather Stations






























Interactive Weather Map New forecast layout! Learn more

10-Day Weather Forecast

Advertisements
Track Severe Weather on mobile